首页
METAR-TAF:

METAR-TAF

机场 :

杰克逊维尔, 佛罗里达州, 美国

纬度: 30-13-07N, 经度: 081-52-36W, 海拔: 25米

当前天气观测

该预报发布于2小时和28分钟前的06:35 UTC
静风
温度 22°C
湿度 94%
气压 1017 hPa
能見度: 9.7公里
天空无云
轻雾

METAR: KVQQ 010635Z AUTO 00000KT 6SM BR CLR 22/21 A3003 RMK AO2

时间: 05:03 (09:03 UTC)

预报

该预报发布于3小时和14分钟前的05:49 UTC
预报有效从01日的 06点(UTC)到 02日的 06点(UTC)
风速节,风向
能見度: 10公里
少量云层高于4500英尺
散云层高于18000英尺
从 01日的 1200点(UTC)
风速8节,风向东转东北
能見度: 10公里
散云层高于2500英尺
多云层高于5000英尺
附近有阵雨
从 01日的 1500点(UTC)
风速12节,风向东转东北
能見度: 10公里
多云层高于2500英尺
多云层高于6000英尺
附近有阵雨
从 01日的 1600点(UTC)
风速13节,风向,有时为22节阵风
能見度: 10公里
阴天层高于2500英尺
附近有阵雨
从 01日的 2300点(UTC)
风速12节,风向,有时为20节阵风
能見度: 10公里
多云层高于3000英尺
多云层高于5000英尺
从 02日的 0200点(UTC)
风速10节,风向
能見度: 10公里
散云层高于3000英尺
多云层高于5000英尺

TAF: KVQQ 010549Z 0106/0206 00000KT P6SM FEW045 SCT180 FM011200 06008KT P6SM VCSH SCT025 BKN050 FM011500 07012KT P6SM VCSH BKN025 BKN060 FM011600 08013G22KT P6SM VCSH OVC025 FM012300 09012G20KT P6SM BKN030 BKN050 FM020200 10010KT P6SM SCT030 BKN050

超过4000个机场的气象观测和天气预报(METAR&TAF报告)。

可查询的气象台以黄色和红色小点在地图上表示。

将鼠标移到小点上方,可查看气象台名称。

然后点击查看天气观测和预报。

如需切换地图:点击带黑十字的绿色按钮放大地图;点击带横线的绿色按钮缩小地图;或者点击绿色箭头查看邻近地区的地图。


METAR-TAF: